Time;durP1;ratioP1;P1;durP2;ratioP2;P2;SDS_P1;SDS_P2;PMS_P1;PMS_P2;Temp;Humidity;BMP_temperature;BMP_pressure;BME280_temperature;BME280_humidity;BME280_pressure;Samples;Min_cycle;Max_cycle;Signal;HPM_P1;HPM_P2
2023/05/06 00:01:33;;;;;;;1.7;1;;;;;;;;;;;;;
2023/05/06 00:03:58;;;;;;;1;0.8;;;;;;;;;;;;;
2023/05/06 00:06:23;;;;;;;1.5;1;;;;;;;;;;;;;
2023/05/06 00:08:48;;;;;;;0.8;0.8;;;;;;;;;;;;;
2023/05/06 00:11:13;;;;;;;1.5;1.2;;;;;;;;;;;;;
2023/05/06 00:13:39;;;;;;;1.1;1;;;;;;;;;;;;;
2023/05/06 00:16:04;;;;;;;0.8;0.8;;;;;;;;;;;;;
2023/05/06 00:18:29;;;;;;;0.6;0.6;;;;;;;;;;;;;
2023/05/06 00:20:55;;;;;;;0.6;0.6;;;;;;;;;;;;;
2023/05/06 00:23:20;;;;;;;1.2;1.1;;;;;;;;;;;;;
2023/05/06 00:25:46;;;;;;;0.8;0.7;;;;;;;;;;;;;
2023/05/06 00:28:11;;;;;;;1;0.8;;;;;;;;;;;;;
2023/05/06 00:30:36;;;;;;;1.3;0.9;;;;;;;;;;;;;
2023/05/06 00:33:02;;;;;;;0.5;0.5;;;;;;;;;;;;;
2023/05/06 00:35:27;;;;;;;2.4;0.8;;;;;;;;;;;;;
2023/05/06 00:37:52;;;;;;;1;0.7;;;;;;;;;;;;;
2023/05/06 00:40:36;;;;;;;1.5;0.7;;;;;;;;;;;;;
2023/05/06 00:43:01;;;;;;;0.7;0.7;;;;;;;;;;;;;
2023/05/06 00:45:26;;;;;;;0.6;0.6;;;;;;;;;;;;;
2023/05/06 00:47:53;;;;;;;0.8;0.8;;;;;;;;;;;;;
2023/05/06 00:50:18;;;;;;;1.8;1;;;;;;;;;;;;;
2023/05/06 00:52:44;;;;;;;0.9;0.7;;;;;;;;;;;;;
2023/05/06 00:55:09;;;;;;;1.6;0.8;;;;;;;;;;;;;
2023/05/06 00:57:35;;;;;;;0.6;0.6;;;;;;;;;;;;;
2023/05/06 01:00:01;;;;;;;0.8;0.8;;;;;;;;;;;;;
2023/05/06 01:02:27;;;;;;;0.7;0.7;;;;;;;;;;;;;
2023/05/06 01:04:54;;;;;;;0.6;0.6;;;;;;;;;;;;;
2023/05/06 01:07:17;;;;;;;0.8;0.8;;;;;;;;;;;;;
2023/05/06 01:09:42;;;;;;;0.7;0.7;;;;;;;;;;;;;
2023/05/06 01:12:07;;;;;;;1;0.8;;;;;;;;;;;;;
2023/05/06 01:14:32;;;;;;;1.1;0.9;;;;;;;;;;;;;
2023/05/06 01:16:57;;;;;;;1;0.9;;;;;;;;;;;;;
2023/05/06 01:19:22;;;;;;;1;1;;;;;;;;;;;;;
2023/05/06 01:21:49;;;;;;;0.7;0.7;;;;;;;;;;;;;
2023/05/06 01:24:14;;;;;;;1.1;0.8;;;;;;;;;;;;;
2023/05/06 01:26:41;;;;;;;1;0.9;;;;;;;;;;;;;
2023/05/06 01:29:05;;;;;;;0.8;0.8;;;;;;;;;;;;;
2023/05/06 01:31:31;;;;;;;0.7;0.7;;;;;;;;;;;;;
2023/05/06 01:33:56;;;;;;;0.9;0.8;;;;;;;;;;;;;
2023/05/06 01:36:22;;;;;;;0.9;0.9;;;;;;;;;;;;;
2023/05/06 01:38:47;;;;;;;1.3;1.2;;;;;;;;;;;;;
2023/05/06 01:41:12;;;;;;;0.9;0.9;;;;;;;;;;;;;
2023/05/06 01:43:37;;;;;;;1.1;1;;;;;;;;;;;;;
2023/05/06 01:46:02;;;;;;;1.1;1;;;;;;;;;;;;;
2023/05/06 01:48:27;;;;;;;0.8;0.8;;;;;;;;;;;;;
2023/05/06 01:50:54;;;;;;;1.1;1;;;;;;;;;;;;;
2023/05/06 01:53:19;;;;;;;1.5;1.2;;;;;;;;;;;;;
2023/05/06 01:55:45;;;;;;;1.5;1.3;;;;;;;;;;;;;
2023/05/06 01:58:10;;;;;;;1.2;1.1;;;;;;;;;;;;;
2023/05/06 02:00:38;;;;;;;1.7;1.1;;;;;;;;;;;;;
2023/05/06 02:03:03;;;;;;;1.2;1.1;;;;;;;;;;;;;
2023/05/06 02:05:31;;;;;;;1.1;1;;;;;;;;;;;;;
2023/05/06 02:07:56;;;;;;;1.2;1;;;;;;;;;;;;;
2023/05/06 02:10:21;;;;;;;1.1;1;;;;;;;;;;;;;
2023/05/06 02:12:46;;;;;;;0.8;0.8;;;;;;;;;;;;;
2023/05/06 02:15:13;;;;;;;1.3;1;;;;;;;;;;;;;
2023/05/06 02:17:38;;;;;;;0.9;0.9;;;;;;;;;;;;;
2023/05/06 02:20:03;;;;;;;1;1;;;;;;;;;;;;;
2023/05/06 02:22:28;;;;;;;0.8;0.8;;;;;;;;;;;;;
2023/05/06 02:24:53;;;;;;;0.9;0.9;;;;;;;;;;;;;
2023/05/06 02:27:18;;;;;;;1.1;1;;;;;;;;;;;;;
2023/05/06 02:29:43;;;;;;;1.1;1;;;;;;;;;;;;;
2023/05/06 02:32:09;;;;;;;1.1;0.9;;;;;;;;;;;;;
2023/05/06 02:34:34;;;;;;;1.4;1.1;;;;;;;;;;;;;
2023/05/06 02:36:59;;;;;;;1.7;1.2;;;;;;;;;;;;;
2023/05/06 02:39:24;;;;;;;1;0.8;;;;;;;;;;;;;
2023/05/06 02:41:49;;;;;;;1.1;1;;;;;;;;;;;;;
2023/05/06 02:44:14;;;;;;;0.9;0.9;;;;;;;;;;;;;
2023/05/06 02:46:39;;;;;;;1.2;0.9;;;;;;;;;;;;;
2023/05/06 02:49:04;;;;;;;1.5;1.1;;;;;;;;;;;;;
2023/05/06 02:51:31;;;;;;;1.6;1.2;;;;;;;;;;;;;
2023/05/06 02:53:56;;;;;;;1.7;1.2;;;;;;;;;;;;;
2023/05/06 02:56:23;;;;;;;1.4;1.2;;;;;;;;;;;;;
2023/05/06 02:58:48;;;;;;;1.1;1;;;;;;;;;;;;;
2023/05/06 03:01:15;;;;;;;0.9;0.9;;;;;;;;;;;;;
2023/05/06 03:03:40;;;;;;;1.1;1;;;;;;;;;;;;;
2023/05/06 03:06:06;;;;;;;0.8;0.8;;;;;;;;;;;;;
2023/05/06 03:08:31;;;;;;;1.5;1;;;;;;;;;;;;;
2023/05/06 03:10:57;;;;;;;1.2;1.1;;;;;;;;;;;;;
2023/05/06 03:13:22;;;;;;;0.9;0.9;;;;;;;;;;;;;
2023/05/06 03:15:49;;;;;;;0.8;0.8;;;;;;;;;;;;;
2023/05/06 03:18:14;;;;;;;0.8;0.8;;;;;;;;;;;;;
2023/05/06 03:20:40;;;;;;;1;0.9;;;;;;;;;;;;;
2023/05/06 03:23:05;;;;;;;1.6;1.1;;;;;;;;;;;;;
2023/05/06 03:25:33;;;;;;;1.4;1;;;;;;;;;;;;;
2023/05/06 03:28:01;;;;;;;0.8;0.8;;;;;;;;;;;;;
2023/05/06 03:30:26;;;;;;;1.3;1.1;;;;;;;;;;;;;
2023/05/06 03:32:57;;;;;;;0.8;0.8;;;;;;;;;;;;;
2023/05/06 03:35:22;;;;;;;1.1;1;;;;;;;;;;;;;
2023/05/06 03:37:51;;;;;;;1.4;1;;;;;;;;;;;;;
2023/05/06 03:40:16;;;;;;;1;0.9;;;;;;;;;;;;;
2023/05/06 03:42:44;;;;;;;0.9;0.9;;;;;;;;;;;;;
2023/05/06 03:45:14;;;;;;;1.1;0.8;;;;;;;;;;;;;
2023/05/06 03:47:39;;;;;;;0.8;0.8;;;;;;;;;;;;;
2023/05/06 03:50:05;;;;;;;2.1;0.8;;;;;;;;;;;;;
2023/05/06 03:52:30;;;;;;;5.5;3.1;;;;;;;;;;;;;
2023/05/06 03:54:56;;;;;;;2.8;2.2;;;;;;;;;;;;;
2023/05/06 03:57:21;;;;;;;1.2;1.1;;;;;;;;;;;;;
2023/05/06 03:59:47;;;;;;;0.8;0.8;;;;;;;;;;;;;
2023/05/06 04:02:36;;;;;;;1.1;1;;;;;;;12.02;100;938.0491;;;;
2023/05/06 04:24:14;;;;;;;1;0.9;;;;;;;11.87;100;938.2502;;;;
2023/05/06 04:26:39;;;;;;;0.8;0.8;;;;;;;11.81;100;938.2791;;;;
2023/05/06 04:29:04;;;;;;;1.1;1;;;;;;;11.78;100;938.2555;;;;
2023/05/06 04:31:29;;;;;;;1.2;1.1;;;;;;;11.85;100;938.2372;;;;
2023/05/06 04:34:01;;;;;;;1.2;1.1;;;;;;;11.83;100;938.2827;;;;
2023/05/06 04:36:27;;;;;;;1;1;;;;;;;11.93;100;938.2902;;;;
2023/05/06 04:39:00;;;;;;;1.2;1.1;;;;;;;11.92;100;938.2886;;;;
2023/05/06 04:41:25;;;;;;;1.2;1.1;;;;;;;11.87;100;938.3619;;;;
2023/05/06 04:43:57;;;;;;;1;1;;;;;;;12;100;938.3798;;;;
2023/05/06 04:46:29;;;;;;;1.1;1;;;;;;;12.06;99.5459;938.3939;;;;
2023/05/06 04:49:00;;;;;;;1.7;1.1;;;;;;;12.01;99.82227;938.4294;;;;
2023/05/06 04:51:30;;;;;;;1.7;1.4;;;;;;;12.07;100;938.4515;;;;
2023/05/06 04:53:54;;;;;;;2.5;1.5;;;;;;;12.3;100;938.407;;;;
2023/05/06 04:56:24;;;;;;;1.3;1.2;;;;;;;12.37;99.35254;938.4464;;;;
2023/05/06 04:58:53;;;;;;;3.4;1.2;;;;;;;12.47;99.01074;938.4621;;;;
2023/05/06 05:01:19;;;;;;;1.7;1.1;;;;;;;12.63;99.27734;938.5083;;;;
2023/05/06 05:03:48;;;;;;;1.4;0.9;;;;;;;12.67;98.86035;938.4676;;;;
2023/05/06 05:06:19;;;;;;;1;0.9;;;;;;;12.64;98.70508;938.4387;;;;
2023/05/06 05:08:44;;;;;;;1.1;1.1;;;;;;;12.69;97.44238;938.4109;;;;
2023/05/06 05:11:12;;;;;;;1.7;0.9;;;;;;;12.57;97.96387;938.3824;;;;
2023/05/06 05:13:36;;;;;;;1.2;0.9;;;;;;;12.57;98.04688;938.3713;;;;
2023/05/06 05:16:07;;;;;;;1.5;1.2;;;;;;;12.55;97.76465;938.4056;;;;
2023/05/06 05:18:35;;;;;;;0.9;0.9;;;;;;;12.57;98.2168;938.3409;;;;
2023/05/06 05:23:50;;;;;;;0.8;0.8;;;;;;;12.74;97.60156;938.4253;;;;
2023/05/06 05:26:15;;;;;;;1;0.9;;;;;;;12.7;97.2832;938.4389;;;;
2023/05/06 05:28:44;;;;;;;0.9;0.8;;;;;;;13.07;96.71191;938.387;;;;
2023/05/06 05:31:09;;;;;;;0.8;0.8;;;;;;;13.27;96.32813;938.457;;;;
2023/05/06 05:33:40;;;;;;;0.8;0.7;;;;;;;13.31;96.26953;938.457;;;;
2023/05/06 05:36:05;;;;;;;1.4;0.8;;;;;;;13.51;96.04004;938.4378;;;;
2023/05/06 05:38:31;;;;;;;2.2;0.9;;;;;;;13.59;95.25098;938.4561;;;;
2023/05/06 05:40:59;;;;;;;0.9;0.9;;;;;;;13.65;93.69824;938.4731;;;;
2023/05/06 05:43:24;;;;;;;1.8;1.4;;;;;;;13.45;93.76172;938.4676;;;;
2023/05/06 05:45:49;;;;;;;2.2;1.5;;;;;;;13.34;94.15137;938.4402;;;;
2023/05/06 05:48:21;;;;;;;2.1;1.2;;;;;;;13.47;94.83398;938.4067;;;;
2023/05/06 05:50:50;;;;;;;1.2;1;;;;;;;13.51;94.68262;938.3403;;;;
2023/05/06 05:53:20;;;;;;;1.1;1;;;;;;;13.46;95.16602;938.3804;;;;
2023/05/06 05:55:45;;;;;;;1.4;1;;;;;;;13.46;94.66016;938.3764;;;;
2023/05/06 05:58:13;;;;;;;0.9;0.9;;;;;;;13.44;94.36816;938.394;;;;
2023/05/06 06:00:38;;;;;;;2;0.9;;;;;;;13.45;95.20996;938.3948;;;;
2023/05/06 06:03:05;;;;;;;1;1;;;;;;;13.49;95.05664;938.3755;;;;
2023/05/06 06:05:30;;;;;;;1.4;1;;;;;;;13.32;94.5957;938.3586;;;;
2023/05/06 06:07:59;;;;;;;2.5;1.3;;;;;;;13.54;95.24121;938.3571;;;;
2023/05/06 06:10:25;;;;;;;1.5;1;;;;;;;13.59;95.08984;938.3337;;;;
2023/05/06 06:12:52;;;;;;;1.3;1.1;;;;;;;13.77;93.84082;938.3896;;;;
2023/05/06 06:15:17;;;;;;;0.9;0.9;;;;;;;14.18;93.90723;938.3856;;;;
2023/05/06 06:17:46;;;;;;;1.2;1.1;;;;;;;14.02;91.63965;938.3773;;;;
2023/05/06 06:20:16;;;;;;;1.5;1;;;;;;;14.18;91.54688;938.3792;;;;
2023/05/06 06:22:46;;;;;;;1.4;1.3;;;;;;;14.65;91.96777;938.3201;;;;
2023/05/06 06:25:11;;;;;;;5.6;3.2;;;;;;;15.19;91.15918;938.3049;;;;
2023/05/06 06:27:38;;;;;;;5.9;3.9;;;;;;;15.92;87.94727;938.2486;;;;
2023/05/06 06:30:03;;;;;;;1.9;1.4;;;;;;;16.28;82.12988;938.2386;;;;
2023/05/06 06:32:32;;;;;;;1.3;1.2;;;;;;;17.42;79.04883;938.2657;;;;
2023/05/06 06:35:00;;;;;;;0.8;0.8;;;;;;;17.69;74.07324;938.2688;;;;
2023/05/06 06:37:25;;;;;;;0.8;0.8;;;;;;;17.67;75.37988;938.2084;;;;
2023/05/06 06:39:53;;;;;;;0.7;0.7;;;;;;;17.15;76.48633;938.28;;;;
2023/05/06 06:42:18;;;;;;;0.7;0.7;;;;;;;16.61;78.83496;938.2739;;;;
2023/05/06 06:44:47;;;;;;;0.7;0.7;;;;;;;15.9;82.86816;938.3622;;;;
2023/05/06 06:47:12;;;;;;;0.8;0.8;;;;;;;15.68;83.54297;938.3144;;;;
2023/05/06 06:49:39;;;;;;;0.7;0.7;;;;;;;16.07;81.67578;938.2785;;;;
2023/05/06 06:52:03;;;;;;;0.7;0.7;;;;;;;16.41;81.46191;938.2875;;;;
2023/05/06 06:54:32;;;;;;;0.6;0.6;;;;;;;16.97;79.77051;938.2759;;;;
2023/05/06 06:56:57;;;;;;;0.7;0.7;;;;;;;17.02;78.10938;938.3318;;;;
2023/05/06 06:59:28;;;;;;;0.8;0.8;;;;;;;17.7;76.5918;938.2905;;;;
2023/05/06 07:01:57;;;;;;;0.7;0.7;;;;;;;18.1;74.76953;938.302;;;;
2023/05/06 07:04:24;;;;;;;1.8;0.8;;;;;;;17.41;75.26758;938.2914;;;;
2023/05/06 07:06:51;;;;;;;1;0.7;;;;;;;17.16;74.05273;938.3208;;;;
2023/05/06 07:09:16;;;;;;;1;0.7;;;;;;;17.11;76.7793;938.3105;;;;
2023/05/06 07:11:43;;;;;;;0.6;0.6;;;;;;;16.48;76.11328;938.3328;;;;
2023/05/06 07:14:08;;;;;;;1.2;0.8;;;;;;;16.64;80.06738;938.3108;;;;
2023/05/06 07:16:35;;;;;;;0.8;0.7;;;;;;;17.96;74.40918;938.3777;;;;
2023/05/06 07:19:00;;;;;;;0.6;0.6;;;;;;;19.2;69.94727;938.3496;;;;
2023/05/06 07:21:26;;;;;;;0.4;0.4;;;;;;;20.53;61.85352;938.319;;;;
2023/05/06 07:23:51;;;;;;;0.5;0.5;;;;;;;19.7;65.06055;938.2866;;;;
2023/05/06 07:26:20;;;;;;;0.7;0.6;;;;;;;19.93;63.07617;938.26;;;;
2023/05/06 07:28:45;;;;;;;0.5;0.5;;;;;;;19.74;63.77246;938.25;;;;
2023/05/06 07:31:11;;;;;;;0.6;0.6;;;;;;;19.55;63.56934;938.2983;;;;
2023/05/06 07:33:36;;;;;;;0.6;0.6;;;;;;;19.42;63.65527;938.33;;;;
2023/05/06 07:36:04;;;;;;;1.7;0.6;;;;;;;18.96;64.8584;938.2766;;;;
2023/05/06 07:38:29;;;;;;;1.7;0.6;;;;;;;18.76;67.81934;938.3364;;;;
2023/05/06 07:40:56;;;;;;;1.3;0.7;;;;;;;18.7;70.02051;938.3917;;;;
2023/05/06 07:43:21;;;;;;;0.5;0.5;;;;;;;18.47;69.04199;938.3798;;;;
2023/05/06 07:46:00;;;;;;;1.5;0.6;;;;;;;18.09;72.62988;938.4659;;;;
2023/05/06 07:48:18;;;;;;;0.6;0.6;;;;;;;17.94;73.90527;938.5297;;;;
2023/05/06 07:50:47;;;;;;;1.2;0.6;;;;;;;18.11;71.4248;938.5477;;;;
2023/05/06 07:53:17;;;;;;;0.5;0.5;;;;;;;18.26;71.04199;938.537;;;;
2023/05/06 07:55:42;;;;;;;0.6;0.5;;;;;;;18.27;72.10254;938.5328;;;;
2023/05/06 07:58:10;;;;;;;0.7;0.7;;;;;;;18.16;73.57129;938.6652;;;;
2023/05/06 08:00:34;;;;;;;0.7;0.7;;;;;;;18.12;74.00684;938.6555;;;;
2023/05/06 08:03:01;;;;;;;1.5;0.6;;;;;;;18.08;73.30078;938.6594;;;;
2023/05/06 08:05:26;;;;;;;0.7;0.6;;;;;;;17.78;74.58789;938.6281;;;;
2023/05/06 08:07:54;;;;;;;0.9;0.5;;;;;;;17.72;73.64746;938.5712;;;;
2023/05/06 08:10:19;;;;;;;0.8;0.6;;;;;;;17.47;74.96387;938.6014;;;;
2023/05/06 08:12:45;;;;;;;0.7;0.7;;;;;;;17.39;75.45996;938.6249;;;;
2023/05/06 08:15:14;;;;;;;2.1;0.8;;;;;;;17.27;76.46973;938.7299;;;;
2023/05/06 08:17:41;;;;;;;0.7;0.7;;;;;;;17.3;76.69727;938.7479;;;;
2023/05/06 08:20:06;;;;;;;0.7;0.7;;;;;;;17.25;76.49316;938.8178;;;;
2023/05/06 08:22:36;;;;;;;1.7;1.5;;;;;;;16.96;81.2832;938.8215;;;;
2023/05/06 08:25:05;;;;;;;1;0.8;;;;;;;16.6;84.23828;938.8256;;;;
2023/05/06 08:27:30;;;;;;;0.7;0.7;;;;;;;16.45;82.54395;938.9464;;;;
2023/05/06 08:29:57;;;;;;;0.7;0.7;;;;;;;16.3;82.8623;939.0082;;;;
2023/05/06 08:32:22;;;;;;;0.8;0.8;;;;;;;16.19;83.28125;939.1055;;;;
2023/05/06 08:34:50;;;;;;;0.6;0.6;;;;;;;15.96;85.46973;939.1075;;;;
2023/05/06 08:37:15;;;;;;;0.8;0.8;;;;;;;15.69;88.53613;939.1933;;;;
2023/05/06 08:39:40;;;;;;;1;0.8;;;;;;;15.57;90.69531;939.2338;;;;
2023/05/06 08:42:05;;;;;;;1.5;0.8;;;;;;;15.58;92.06055;939.2707;;;;
2023/05/06 08:44:30;;;;;;;0.8;0.8;;;;;;;15.62;92.31055;939.2421;;;;
2023/05/06 08:47:00;;;;;;;0.9;0.9;;;;;;;15.72;92.33105;939.2212;;;;
2023/05/06 08:49:25;;;;;;;0.8;0.8;;;;;;;15.68;91.44531;939.1621;;;;
2023/05/06 08:51:51;;;;;;;0.7;0.7;;;;;;;15.69;91.27441;939.1837;;;;
2023/05/06 08:54:16;;;;;;;0.9;0.9;;;;;;;15.68;91.84961;939.1662;;;;
2023/05/06 08:56:44;;;;;;;1.2;0.8;;;;;;;15.76;91.86523;939.11;;;;
2023/05/06 08:59:10;;;;;;;0.8;0.8;;;;;;;15.74;90.5459;939.1117;;;;
2023/05/06 09:01:37;;;;;;;2.2;1.6;;;;;;;15.89;90.41406;939.1058;;;;
2023/05/06 09:04:02;;;;;;;1;1;;;;;;;15.9;89.2373;939.105;;;;
2023/05/06 09:06:30;;;;;;;1.1;0.9;;;;;;;15.86;88.50098;939.0042;;;;
2023/05/06 09:08:55;;;;;;;1;0.7;;;;;;;15.94;87.69531;938.9199;;;;
2023/05/06 09:11:22;;;;;;;1.2;1;;;;;;;16.39;89.10645;938.9115;;;;
2023/05/06 09:13:47;;;;;;;2.5;1.6;;;;;;;16.8;84.97266;938.9498;;;;
2023/05/06 09:16:15;;;;;;;0.8;0.8;;;;;;;17.29;81.05566;938.9509;;;;
2023/05/06 09:18:40;;;;;;;0.9;0.9;;;;;;;17.56;79.83105;938.9219;;;;
2023/05/06 09:21:06;;;;;;;1.1;1;;;;;;;17.64;80.18066;938.8364;;;;
2023/05/06 09:23:31;;;;;;;1.3;0.9;;;;;;;17.69;79.93457;938.8391;;;;
2023/05/06 09:25:56;;;;;;;1.2;1;;;;;;;17.82;77.42676;938.8119;;;;
2023/05/06 09:28:23;;;;;;;0.8;0.8;;;;;;;17.79;79.16309;938.9154;;;;
2023/05/06 09:30:50;;;;;;;0.9;0.9;;;;;;;18.17;80.37012;938.9099;;;;
2023/05/06 09:33:13;;;;;;;0.8;0.8;;;;;;;18.14;79.86426;938.9091;;;;
2023/05/06 09:35:41;;;;;;;0.9;0.9;;;;;;;18.43;77.14941;938.8814;;;;
2023/05/06 09:38:06;;;;;;;3;1.1;;;;;;;18.77;75.58203;938.8281;;;;
2023/05/06 09:40:33;;;;;;;1.7;0.8;;;;;;;18.96;73.53027;938.8301;;;;
2023/05/06 09:42:59;;;;;;;1.1;0.9;;;;;;;18.49;75.92969;938.8317;;;;
2023/05/06 09:45:23;;;;;;;1;0.8;;;;;;;18.69;72.34473;938.817;;;;
2023/05/06 09:47:51;;;;;;;0.7;0.7;;;;;;;18.84;71.14844;938.8036;;;;
2023/05/06 09:50:14;;;;;;;1.2;1.1;;;;;;;18.7;70.88184;938.7498;;;;
2023/05/06 09:52:41;;;;;;;1.1;1;;;;;;;18.92;68.80859;938.7495;;;;
2023/05/06 09:55:07;;;;;;;0.7;0.7;;;;;;;18.99;68.63379;938.7924;;;;
2023/05/06 09:57:32;;;;;;;0.8;0.8;;;;;;;19.32;65.5166;938.7418;;;;
2023/05/06 09:59:57;;;;;;;1.1;0.8;;;;;;;19.75;66.21094;938.7275;;;;
2023/05/06 10:02:27;;;;;;;1.2;0.8;;;;;;;20.27;63.21777;938.6953;;;;
2023/05/06 10:04:52;;;;;;;0.9;0.8;;;;;;;20.31;63.28223;938.6868;;;;
2023/05/06 10:07:21;;;;;;;0.7;0.7;;;;;;;20.17;64.04395;938.6686;;;;
2023/05/06 10:09:44;;;;;;;0.7;0.7;;;;;;;20.29;61.84277;938.6139;;;;
2023/05/06 10:12:09;;;;;;;0.9;0.8;;;;;;;20.71;62.80078;938.7106;;;;
2023/05/06 10:14:38;;;;;;;1;0.9;;;;;;;20.9;61.33203;938.5928;;;;
2023/05/06 10:17:03;;;;;;;1.5;1;;;;;;;20.69;60.78906;938.5467;;;;
2023/05/06 10:19:31;;;;;;;0.7;0.7;;;;;;;20.55;61.43555;938.5627;;;;
2023/05/06 10:21:56;;;;;;;0.7;0.7;;;;;;;20.38;61.93652;938.5427;;;;
2023/05/06 10:24:21;;;;;;;0.7;0.7;;;;;;;19.57;59.72656;938.5103;;;;
2023/05/06 10:26:47;;;;;;;1;0.9;;;;;;;19.82;63.60938;938.5189;;;;
2023/05/06 10:29:14;;;;;;;0.8;0.8;;;;;;;19.51;64.68262;938.4064;;;;
2023/05/06 10:31:39;;;;;;;0.8;0.8;;;;;;;18.9;70.50488;938.4828;;;;
2023/05/06 10:34:08;;;;;;;0.8;0.8;;;;;;;18.54;66.26172;938.459;;;;
2023/05/06 10:36:35;;;;;;;0.8;0.7;;;;;;;18.4;67.92773;938.4769;;;;
2023/05/06 10:39:02;;;;;;;1;0.9;;;;;;;18.32;71.34277;938.4673;;;;
2023/05/06 10:41:27;;;;;;;0.7;0.7;;;;;;;18.78;65.04102;938.3569;;;;
2023/05/06 10:43:56;;;;;;;0.6;0.6;;;;;;;19.26;65.82324;938.3475;;;;
2023/05/06 10:46:19;;;;;;;0.7;0.7;;;;;;;19.29;63.87012;938.3137;;;;
2023/05/06 10:48:44;;;;;;;0.8;0.8;;;;;;;19.52;63.72949;938.2858;;;;
2023/05/06 10:51:11;;;;;;;0.7;0.7;;;;;;;19.98;64.43652;938.2231;;;;
2023/05/06 10:53:36;;;;;;;0.9;0.7;;;;;;;20.72;62.08984;938.1834;;;;
2023/05/06 10:56:01;;;;;;;0.6;0.6;;;;;;;20.58;59.63965;938.1226;;;;
2023/05/06 10:58:29;;;;;;;0.6;0.6;;;;;;;20.76;58.10938;938.077;;;;
2023/05/06 11:00:55;;;;;;;0.7;0.7;;;;;;;20.24;60.79688;938.0808;;;;
2023/05/06 11:03:20;;;;;;;0.6;0.6;;;;;;;20.44;64.49219;938.0684;;;;
2023/05/06 11:05:45;;;;;;;0.7;0.7;;;;;;;19.61;58.75195;938.0391;;;;
2023/05/06 11:08:10;;;;;;;0.9;0.7;;;;;;;19.91;60.05176;937.9631;;;;
2023/05/06 11:10:35;;;;;;;0.8;0.8;;;;;;;21.02;59.61914;937.926;;;;
2023/05/06 11:13:02;;;;;;;0.9;0.8;;;;;;;21.45;59.17188;937.8892;;;;
2023/05/06 11:15:27;;;;;;;1.1;0.8;;;;;;;21.42;59.26172;937.8289;;;;
2023/05/06 11:17:53;;;;;;;1.3;1.2;;;;;;;21.56;60.87305;937.8497;;;;
2023/05/06 11:20:19;;;;;;;0.8;0.8;;;;;;;22;62.45605;937.8482;;;;
2023/05/06 11:22:44;;;;;;;0.8;0.7;;;;;;;22.11;56.38867;937.8173;;;;
2023/05/06 11:25:13;;;;;;;1;0.7;;;;;;;23.35;53.04199;937.7734;;;;
2023/05/06 11:27:38;;;;;;;1.6;0.8;;;;;;;24.46;49.21582;937.7307;;;;
2023/05/06 11:30:06;;;;;;;0.6;0.6;;;;;;;24.74;51.47559;937.7637;;;;
2023/05/06 11:32:31;;;;;;;1.1;0.6;;;;;;;24.93;48.46387;937.5986;;;;
2023/05/06 11:34:57;;;;;;;0.9;0.9;;;;;;;25.25;48.13379;937.603;;;;
2023/05/06 11:37:22;;;;;;;0.7;0.7;;;;;;;25.87;46.99414;937.5881;;;;
2023/05/06 11:39:50;;;;;;;1.3;0.9;;;;;;;25.25;46.38672;937.5502;;;;
2023/05/06 11:42:15;;;;;;;1;0.8;;;;;;;24.51;52.05078;937.514;;;;
2023/05/06 11:44:41;;;;;;;1.7;0.7;;;;;;;25.92;48.4541;937.5531;;;;
2023/05/06 11:47:06;;;;;;;1;0.9;;;;;;;26.96;44.71484;937.5134;;;;
2023/05/06 11:49:31;;;;;;;0.5;0.5;;;;;;;27.05;43.78613;937.4085;;;;
2023/05/06 11:51:58;;;;;;;0.7;0.7;;;;;;;26.38;44.18359;937.4447;;;;
2023/05/06 11:54:23;;;;;;;1.1;0.8;;;;;;;25.7;45.08496;937.4409;;;;
2023/05/06 11:56:50;;;;;;;0.7;0.6;;;;;;;26;41.55566;937.385;;;;
2023/05/06 11:59:15;;;;;;;0.8;0.8;;;;;;;25.81;44.39844;937.3464;;;;
2023/05/06 12:01:41;;;;;;;0.9;0.7;;;;;;;24.84;47.18164;937.308;;;;
2023/05/06 12:04:06;;;;;;;0.6;0.6;;;;;;;25.21;48.05762;937.2869;;;;
2023/05/06 12:06:31;;;;;;;0.7;0.7;;;;;;;24.7;47.55566;937.1872;;;;
2023/05/06 12:08:58;;;;;;;0.8;0.8;;;;;;;24.9;47.24609;937.2132;;;;
2023/05/06 12:11:23;;;;;;;0.7;0.7;;;;;;;25.33;46.61914;937.2112;;;;
2023/05/06 12:13:49;;;;;;;0.8;0.8;;;;;;;25.17;47.44043;937.1691;;;;
2023/05/06 12:16:14;;;;;;;0.8;0.6;;;;;;;25.16;46.11719;937.158;;;;
2023/05/06 12:18:40;;;;;;;0.6;0.6;;;;;;;24.38;49.18262;937.1309;;;;
2023/05/06 12:21:06;;;;;;;0.6;0.6;;;;;;;24.18;48.3252;937.0822;;;;
2023/05/06 12:23:32;;;;;;;0.6;0.6;;;;;;;24.47;47.95508;937.0645;;;;
2023/05/06 12:25:57;;;;;;;0.8;0.8;;;;;;;24.53;48.30371;937.063;;;;
2023/05/06 12:28:22;;;;;;;0.7;0.6;;;;;;;24.66;47.8584;937.0734;;;;
2023/05/06 12:30:48;;;;;;;0.6;0.6;;;;;;;24.14;50.04004;937.079;;;;
2023/05/06 12:33:14;;;;;;;0.6;0.6;;;;;;;24.31;49.65723;937.0723;;;;
2023/05/06 12:35:41;;;;;;;0.7;0.7;;;;;;;25.11;44.7666;937.0236;;;;
2023/05/06 12:38:06;;;;;;;1.2;0.7;;;;;;;25.45;45.25;937.0341;;;;
2023/05/06 12:40:33;;;;;;;0.9;0.9;;;;;;;25.02;47.35352;937.057;;;;
2023/05/06 12:42:58;;;;;;;1.2;0.8;;;;;;;24.91;46.83301;937.037;;;;
2023/05/06 12:45:23;;;;;;;0.7;0.7;;;;;;;24.45;49.9209;937.0261;;;;
2023/05/06 12:47:52;;;;;;;0.9;0.9;;;;;;;23.61;53.0957;937.1091;;;;
2023/05/06 12:50:17;;;;;;;1.1;0.9;;;;;;;23.44;52.56055;937.1182;;;;
2023/05/06 12:52:44;;;;;;;1.1;0.9;;;;;;;23.06;54.65234;937.1051;;;;
2023/05/06 12:55:09;;;;;;;1.2;1.1;;;;;;;23.03;55.60059;937.0219;;;;
2023/05/06 12:57:37;;;;;;;1.5;0.9;;;;;;;22.88;57.55469;937.0209;;;;
2023/05/06 13:00:02;;;;;;;1.1;1.1;;;;;;;22.86;58.15137;937.0325;;;;
2023/05/06 13:02:27;;;;;;;2;0.8;;;;;;;22.67;58.7002;937.0549;;;;
2023/05/06 13:04:52;;;;;;;2.1;1.1;;;;;;;22.77;57.81055;937.0492;;;;
2023/05/06 13:07:21;;;;;;;1.2;1.1;;;;;;;22.59;59.125;937.024;;;;
2023/05/06 13:09:45;;;;;;;1.3;1.1;;;;;;;22.55;60.11816;937.0329;;;;
2023/05/06 13:12:10;;;;;;;1.2;1.1;;;;;;;22.39;60.17773;937.1128;;;;
2023/05/06 13:14:36;;;;;;;1.4;1.3;;;;;;;22.1;62.50684;937.0472;;;;
2023/05/06 13:17:03;;;;;;;1.2;1.1;;;;;;;21.91;60.89844;937.0722;;;;
2023/05/06 13:19:26;;;;;;;1.6;1.3;;;;;;;21.37;62.47559;937.056;;;;
2023/05/06 13:21:51;;;;;;;1.8;1.4;;;;;;;20.82;64.81738;937.0547;;;;
2023/05/06 13:24:18;;;;;;;1.5;1.4;;;;;;;20.42;66.54297;936.984;;;;
2023/05/06 13:26:43;;;;;;;1.4;1.3;;;;;;;20.24;65.73535;936.9964;;;;
2023/05/06 13:29:09;;;;;;;2;1.3;;;;;;;20.13;67.62012;937.0098;;;;
2023/05/06 13:31:35;;;;;;;1.5;1.4;;;;;;;20.38;67.1582;937.0453;;;;
2023/05/06 13:34:01;;;;;;;1.6;1.3;;;;;;;20.48;68.42285;937.0623;;;;
2023/05/06 13:36:26;;;;;;;1.5;1.4;;;;;;;20.81;66.20703;937.0959;;;;
2023/05/06 13:38:53;;;;;;;1.9;1.4;;;;;;;20.93;65.5332;937.0917;;;;
2023/05/06 13:41:18;;;;;;;1.3;1.2;;;;;;;21.02;64.2373;937.0614;;;;
2023/05/06 13:43:43;;;;;;;2.3;1.4;;;;;;;20.74;66.11328;937.0158;;;;
2023/05/06 13:46:08;;;;;;;1.7;1.6;;;;;;;20.69;67.01758;936.9689;;;;
2023/05/06 13:48:36;;;;;;;1.8;1.5;;;;;;;21.05;65.94824;936.8308;;;;
2023/05/06 13:51:01;;;;;;;1.6;1.5;;;;;;;21.21;66.14941;936.8608;;;;
2023/05/06 13:53:28;;;;;;;1.5;1.4;;;;;;;21.49;63.90723;936.9342;;;;
2023/05/06 13:55:53;;;;;;;1.4;1.3;;;;;;;21.26;64.83398;936.9774;;;;
2023/05/06 13:58:21;;;;;;;1.5;1.4;;;;;;;21.15;64.48926;936.9368;;;;
2023/05/06 14:00:47;;;;;;;1.6;1.5;;;;;;;20.86;66.09668;936.8762;;;;
2023/05/06 14:03:12;;;;;;;1.7;1.4;;;;;;;21.02;66.61133;936.8986;;;;
2023/05/06 14:05:37;;;;;;;1.4;1.3;;;;;;;20.97;66.86133;936.8613;;;;
2023/05/06 14:08:03;;;;;;;1.6;1.5;;;;;;;21.22;65.78711;936.8923;;;;
2023/05/06 14:10:28;;;;;;;1.5;1.4;;;;;;;21.26;65.77051;936.9182;;;;
2023/05/06 14:12:54;;;;;;;1.8;1.5;;;;;;;21.3;65.82227;937.0012;;;;
2023/05/06 14:15:22;;;;;;;1.4;1.3;;;;;;;21.44;64.94141;936.9732;;;;
2023/05/06 14:17:47;;;;;;;1.5;1.3;;;;;;;21.39;66.69043;937.058;;;;
2023/05/06 14:20:16;;;;;;;1.6;1.4;;;;;;;21.03;66.58984;936.9956;;;;
2023/05/06 14:22:44;;;;;;;1.6;1.4;;;;;;;20.79;69.89648;937.0499;;;;
2023/05/06 14:25:09;;;;;;;1.8;1.4;;;;;;;20.4;70.14941;937.0934;;;;
2023/05/06 14:27:36;;;;;;;2.8;1.8;;;;;;;20.42;72.83984;937.0075;;;;
2023/05/06 14:30:04;;;;;;;1.5;1.4;;;;;;;20.27;71.47168;937.0197;;;;
2023/05/06 14:32:26;;;;;;;1.8;1.5;;;;;;;20.22;75.43164;936.9044;;;;
2023/05/06 14:34:52;;;;;;;1.5;1.4;;;;;;;20.32;75.1582;936.8425;;;;
2023/05/06 14:37:17;;;;;;;1.6;1.5;;;;;;;20.24;76.06641;936.8417;;;;
2023/05/06 14:39:42;;;;;;;2.1;1.4;;;;;;;20;75.50098;936.8524;;;;
2023/05/06 14:42:08;;;;;;;1.5;1.4;;;;;;;20.12;74.44727;936.782;;;;
2023/05/06 14:44:33;;;;;;;1.5;1.4;;;;;;;20.18;71.80859;936.8376;;;;
2023/05/06 14:46:58;;;;;;;1.3;1.2;;;;;;;20.35;70.5752;936.8077;;;;
2023/05/06 14:49:24;;;;;;;1.3;1.2;;;;;;;20.36;71.55762;936.8842;;;;
2023/05/06 14:51:49;;;;;;;1.7;1.3;;;;;;;20.27;72.44043;936.8653;;;;
2023/05/06 14:54:17;;;;;;;1.5;1.4;;;;;;;20.33;70.86328;936.8497;;;;
2023/05/06 14:56:41;;;;;;;1.2;1.1;;;;;;;20.02;70.21875;936.7963;;;;
2023/05/06 14:59:06;;;;;;;1.6;1.3;;;;;;;20.05;69.84961;936.7955;;;;
2023/05/06 15:01:32;;;;;;;1.4;1.3;;;;;;;20;70.83398;936.7456;;;;
2023/05/06 15:03:56;;;;;;;2.2;1.3;;;;;;;19.98;69.27832;936.7917;;;;
2023/05/06 15:06:22;;;;;;;1.9;1.4;;;;;;;20.08;68.03516;936.7403;;;;
2023/05/06 15:08:48;;;;;;;1.2;1.1;;;;;;;20.29;68.36914;936.6617;;;;
2023/05/06 15:11:15;;;;;;;1.3;1.2;;;;;;;20.35;69.11426;936.6791;;;;
2023/05/06 15:13:40;;;;;;;1.6;1.1;;;;;;;20.3;69.08301;936.6719;;;;
2023/05/06 15:16:07;;;;;;;1.5;1.1;;;;;;;20.42;69.14746;936.633;;;;
2023/05/06 15:18:32;;;;;;;1.9;1.3;;;;;;;20.52;69.02441;936.6236;;;;
2023/05/06 15:21:01;;;;;;;1.4;1.3;;;;;;;20.55;67.81348;936.7028;;;;
2023/05/06 15:23:25;;;;;;;1.5;1;;;;;;;20.4;67.53418;936.7164;;;;
2023/05/06 15:25:50;;;;;;;1.8;1.2;;;;;;;20.27;68.01563;936.7084;;;;
2023/05/06 15:28:15;;;;;;;1.2;1.1;;;;;;;20.29;67.13184;936.6786;;;;
2023/05/06 15:30:40;;;;;;;1.8;1.3;;;;;;;20.36;67.05078;936.7184;;;;
2023/05/06 15:33:07;;;;;;;1;1;;;;;;;20.41;67.59277;936.774;;;;
2023/05/06 15:35:32;;;;;;;1.2;1.1;;;;;;;20.48;67.7793;936.7534;;;;
2023/05/06 15:37:58;;;;;;;1.3;1.2;;;;;;;20.5;67.1875;936.7778;;;;
2023/05/06 15:40:24;;;;;;;1.3;1.2;;;;;;;20.51;67.63281;936.7477;;;;
2023/05/06 15:42:49;;;;;;;1.2;1.1;;;;;;;20.58;67.55078;936.8206;;;;
2023/05/06 15:45:16;;;;;;;1.8;1.3;;;;;;;20.5;66.85938;936.8475;;;;
2023/05/06 15:47:42;;;;;;;1.5;1.2;;;;;;;20.34;67.2334;936.8058;;;;
2023/05/06 15:50:13;;;;;;;1.5;1.4;;;;;;;20.36;67.87988;936.8348;;;;
2023/05/06 15:52:41;;;;;;;1.2;1;;;;;;;20.36;68.60352;936.7717;;;;
2023/05/06 15:55:05;;;;;;;2.8;1.4;;;;;;;20.49;66.53223;936.7935;;;;
2023/05/06 15:57:33;;;;;;;1.5;1.2;;;;;;;20.61;66.25879;936.7986;;;;
2023/05/06 15:59:58;;;;;;;1.2;1.1;;;;;;;20.67;66.17383;936.7234;;;;